createdAt,value
2019-01-26T00:00:52.723Z,10.77
2019-01-26T00:03:22.026Z,9.73
2019-01-26T00:05:51.812Z,9.50
2019-01-26T00:08:25.256Z,11.63
2019-01-26T00:10:54.939Z,10.60
2019-01-26T00:13:28.073Z,11.73
2019-01-26T00:15:57.791Z,12.17
2019-01-26T00:18:31.043Z,11.97
2019-01-26T00:21:01.140Z,12.93
2019-01-26T00:23:33.519Z,12.13
2019-01-26T00:26:02.519Z,12.73
2019-01-26T00:28:34.779Z,12.90
2019-01-26T00:31:04.616Z,13.70
2019-01-26T00:33:43.229Z,13.80
2019-01-26T00:36:12.538Z,14.37
2019-01-26T00:38:41.579Z,14.63
2019-01-26T00:41:11.297Z,14.13
2019-01-26T00:43:43.913Z,13.47
2019-01-26T00:46:13.600Z,13.00
2019-01-26T00:48:46.307Z,12.27
2019-01-26T00:51:17.245Z,12.97
2019-01-26T00:53:54.271Z,13.73
2019-01-26T00:56:23.951Z,12.83
2019-01-26T00:58:56.869Z,13.77
2019-01-26T01:01:26.851Z,12.70
2019-01-26T01:03:59.579Z,12.67
2019-01-26T01:06:28.599Z,12.00
2019-01-26T01:09:02.378Z,11.20
2019-01-26T01:11:32.365Z,11.27
2019-01-26T01:14:03.545Z,10.97
2019-01-26T01:16:35.962Z,11.30
2019-01-26T01:19:07.785Z,11.53
2019-01-26T01:21:36.791Z,11.30
2019-01-26T01:24:11.365Z,10.97
2019-01-26T01:26:41.333Z,11.73
2019-01-26T01:29:14.089Z,11.33
2019-01-26T01:31:43.833Z,11.97
2019-01-26T01:34:16.259Z,11.47
2019-01-26T01:36:45.265Z,12.10
2019-01-26T01:39:17.948Z,12.03
2019-01-26T01:41:47.902Z,12.50
2019-01-26T01:44:26.474Z,11.57
2019-01-26T01:46:55.562Z,12.23
2019-01-26T01:49:26.126Z,12.67
2019-01-26T01:51:55.158Z,12.37
2019-01-26T01:54:26.144Z,12.40
2019-01-26T01:56:55.146Z,12.83
2019-01-26T01:59:29.271Z,13.60
2019-01-26T02:01:59.239Z,14.27
2019-01-26T02:04:31.949Z,12.40
2019-01-26T02:07:01.650Z,12.80
2019-01-26T02:09:35.085Z,12.77
2019-01-26T02:12:04.822Z,13.80
2019-01-26T02:14:37.407Z,12.57
2019-01-26T02:17:06.498Z,11.07
2019-01-26T02:19:39.421Z,11.50
2019-01-26T02:22:08.803Z,11.40
2019-01-26T02:24:43.523Z,11.63
2019-01-26T02:27:13.213Z,11.40
2019-01-26T02:29:45.310Z,12.30
2019-01-26T02:32:14.979Z,12.00
2019-01-26T02:34:47.407Z,12.67
2019-01-26T02:37:17.412Z,12.60
2019-01-26T02:39:53.942Z,12.97
2019-01-26T02:42:23.694Z,13.73
2019-01-26T02:44:55.131Z,13.20
2019-01-26T02:47:24.808Z,12.43
2019-01-26T02:49:57.229Z,14.23
2019-01-26T02:52:26.948Z,14.83
2019-01-26T02:55:00.014Z,15.03
2019-01-26T02:57:29.018Z,15.10
2019-01-26T03:00:06.407Z,16.30
2019-01-26T03:02:35.678Z,15.63
2019-01-26T03:05:07.675Z,16.43
2019-01-26T03:07:36.706Z,14.53
2019-01-26T03:10:12.734Z,15.57
2019-01-26T03:12:42.556Z,17.57
2019-01-26T03:15:16.769Z,16.67
2019-01-26T03:17:46.639Z,18.37
2019-01-26T03:20:18.551Z,17.73
2019-01-26T03:22:47.816Z,18.90
2019-01-26T03:25:20.312Z,20.30
2019-01-26T03:27:50.101Z,20.60
2019-01-26T03:30:25.346Z,20.53
2019-01-26T03:32:54.411Z,18.87
2019-01-26T03:35:24.434Z,20.67
2019-01-26T03:37:54.443Z,20.83
2019-01-26T03:40:27.307Z,20.77
2019-01-26T03:42:56.299Z,19.70
2019-01-26T03:45:30.056Z,21.93
2019-01-26T03:47:59.823Z,20.63
2019-01-26T03:50:31.895Z,22.60
2019-01-26T03:53:02.901Z,21.40
2019-01-26T03:55:35.625Z,23.63
2019-01-26T03:58:05.525Z,23.80
2019-01-26T04:00:38.198Z,24.37
2019-01-26T04:03:08.000Z,20.93
2019-01-26T04:05:43.136Z,22.03
2019-01-26T04:08:13.193Z,22.43
2019-01-26T04:10:42.332Z,22.23
2019-01-26T04:13:12.041Z,24.73
2019-01-26T04:15:45.545Z,23.07
2019-01-26T04:18:15.246Z,22.63
2019-01-26T04:20:49.399Z,23.97
2019-01-26T04:23:19.384Z,23.20
2019-01-26T04:25:54.113Z,23.47
2019-01-26T04:28:23.822Z,23.57
2019-01-26T04:30:56.671Z,21.70
2019-01-26T04:33:26.349Z,24.97
2019-01-26T04:35:59.083Z,25.50
2019-01-26T04:38:30.034Z,23.93
2019-01-26T04:41:07.350Z,25.23
2019-01-26T04:43:37.024Z,22.97
2019-01-26T04:46:06.988Z,25.33
2019-01-26T04:48:36.707Z,24.13
2019-01-26T04:51:14.084Z,23.10
2019-01-26T04:53:43.993Z,25.83
2019-01-26T04:56:13.795Z,24.00
2019-01-26T04:58:43.479Z,25.57
2019-01-26T05:01:16.575Z,22.10
2019-01-26T05:03:46.252Z,24.53
2019-01-26T05:06:21.127Z,25.47
2019-01-26T05:08:52.202Z,22.87
2019-01-26T05:11:21.887Z,25.80
2019-01-26T05:13:53.874Z,22.67
2019-01-26T05:16:23.835Z,23.70
2019-01-26T05:18:55.493Z,23.83
2019-01-26T05:21:27.997Z,24.90
2019-01-26T05:23:58.029Z,23.87
2019-01-26T05:26:29.213Z,24.97
2019-01-26T05:28:58.909Z,24.27
2019-01-26T05:31:31.582Z,24.73
2019-01-26T05:34:00.567Z,23.30
2019-01-26T05:36:33.725Z,20.57
2019-01-26T05:39:05.721Z,22.90
2019-01-26T05:41:38.312Z,23.77
2019-01-26T05:44:08.004Z,23.30
2019-01-26T05:46:40.474Z,22.83
2019-01-26T05:49:10.247Z,22.50
2019-01-26T05:51:43.839Z,21.87
2019-01-26T05:54:13.544Z,23.00
2019-01-26T05:56:46.130Z,22.57
2019-01-26T05:59:15.134Z,24.17
2019-01-26T06:01:48.694Z,22.37
2019-01-26T06:04:18.631Z,22.97
2019-01-26T06:06:55.264Z,23.20
2019-01-26T06:09:24.958Z,21.93
2019-01-26T06:11:56.483Z,20.03
2019-01-26T06:14:26.231Z,21.37
2019-01-26T06:16:59.579Z,22.47
2019-01-26T06:19:29.661Z,21.97
2019-01-26T06:22:01.941Z,19.40
2019-01-26T06:24:31.623Z,20.53
2019-01-26T06:27:08.499Z,19.17
2019-01-26T06:29:38.159Z,19.37
2019-01-26T06:32:12.353Z,19.50
2019-01-26T06:34:41.638Z,19.53
2019-01-26T06:37:12.876Z,17.70
2019-01-26T06:39:42.610Z,17.40
2019-01-26T06:42:15.335Z,16.97
2019-01-26T06:44:45.040Z,16.00
2019-01-26T06:47:18.082Z,17.03
2019-01-26T06:49:48.005Z,14.37
2019-01-26T06:52:20.466Z,13.63
2019-01-26T06:54:49.490Z,15.03
2019-01-26T06:57:23.245Z,13.40
2019-01-26T06:59:53.279Z,14.80
2019-01-26T07:02:25.306Z,14.73
2019-01-26T07:05:03.431Z,13.43
2019-01-26T07:07:33.152Z,12.67
2019-01-26T07:10:02.818Z,12.97
2019-01-26T07:12:32.823Z,13.10
2019-01-26T07:15:02.507Z,10.53
2019-01-26T07:17:34.620Z,11.87
2019-01-26T07:20:05.247Z,10.67
2019-01-26T07:22:35.755Z,11.90
2019-01-26T07:25:06.076Z,9.70
2019-01-26T07:27:38.970Z,9.83
2019-01-26T07:30:10.812Z,8.70
2019-01-26T07:32:43.582Z,9.30
2019-01-26T07:35:14.755Z,9.87
2019-01-26T07:37:44.915Z,8.87
2019-01-26T07:40:17.237Z,9.57
2019-01-26T07:42:50.414Z,8.33
2019-01-26T07:45:20.146Z,10.27
2019-01-26T07:47:52.160Z,8.67
2019-01-26T07:50:22.453Z,9.73
2019-01-26T07:52:55.171Z,9.03
2019-01-26T07:55:24.856Z,9.13
2019-01-26T07:57:57.891Z,9.37
2019-01-26T08:00:27.954Z,9.63
2019-01-26T08:03:04.809Z,10.20
2019-01-26T08:05:34.850Z,10.70
2019-01-26T08:08:04.768Z,9.40
2019-01-26T08:10:34.650Z,10.10
2019-01-26T08:13:08.227Z,10.20
2019-01-26T08:15:38.787Z,11.23
2019-01-26T08:18:15.559Z,11.00
2019-01-26T08:20:47.420Z,10.83
2019-01-26T08:23:16.420Z,12.00
2019-01-26T08:25:46.123Z,11.37
2019-01-26T08:28:16.663Z,8.80
2019-01-26T08:30:45.708Z,11.50
2019-01-26T08:33:21.269Z,11.97
2019-01-26T08:35:52.231Z,11.63
2019-01-26T08:38:21.438Z,10.67
2019-01-26T08:40:51.167Z,11.43
2019-01-26T08:43:24.650Z,11.63
2019-01-26T08:45:54.323Z,9.63
2019-01-26T08:48:31.379Z,10.93
2019-01-26T08:50:58.186Z,11.23
2019-01-26T08:53:30.917Z,9.87
2019-01-26T08:56:00.184Z,10.07
2019-01-26T08:58:34.506Z,11.47
2019-01-26T09:01:07.090Z,9.60
2019-01-26T09:03:49.516Z,9.43
2019-01-26T09:06:44.378Z,8.97
2019-01-26T09:09:15.014Z,8.00
2019-01-26T09:11:44.710Z,9.17
2019-01-26T09:14:14.687Z,7.70
2019-01-26T09:16:44.455Z,8.90
2019-01-26T09:19:14.177Z,7.67
2019-01-26T09:21:46.262Z,8.47
2019-01-26T09:24:16.059Z,7.17
2019-01-26T09:26:50.458Z,7.30
2019-01-26T09:29:20.431Z,8.77
2019-01-26T09:31:52.375Z,8.73
2019-01-26T09:34:22.187Z,8.63
2019-01-26T09:36:57.559Z,9.67
2019-01-26T09:39:27.299Z,7.63
2019-01-26T09:41:59.396Z,9.33
2019-01-26T09:44:29.745Z,9.23
2019-01-26T09:47:02.571Z,8.70
2019-01-26T09:49:32.219Z,9.50
2019-01-26T09:52:06.905Z,9.87
2019-01-26T09:54:36.019Z,8.97
2019-01-26T09:57:11.595Z,10.00
2019-01-26T09:59:41.294Z,10.13
2019-01-26T10:02:11.978Z,10.40
2019-01-26T10:04:42.471Z,10.47
2019-01-26T10:07:15.625Z,10.37
2019-01-26T10:09:45.539Z,10.70
2019-01-26T10:12:32.235Z,10.40
2019-01-26T10:15:01.962Z,11.53
2019-01-26T10:17:34.939Z,10.20
2019-01-26T10:20:05.342Z,11.20
2019-01-26T10:22:35.032Z,11.57
2019-01-26T10:25:06.234Z,13.60
2019-01-26T10:27:36.229Z,11.97
2019-01-26T10:30:05.736Z,13.57
2019-01-26T10:32:35.151Z,11.27
2019-01-26T10:35:04.490Z,12.67
2019-01-26T10:37:35.967Z,12.70
2019-01-26T10:40:10.962Z,11.57
2019-01-26T10:42:41.127Z,11.97
2019-01-26T10:45:10.259Z,12.10
2019-01-26T10:47:39.819Z,12.37
2019-01-26T10:50:10.220Z,13.77
2019-01-26T10:52:41.314Z,12.00
2019-01-26T10:55:15.438Z,13.03
2019-01-26T10:57:44.574Z,11.80
2019-01-26T11:00:16.207Z,15.00
2019-01-26T11:02:46.463Z,11.77
2019-01-26T11:05:16.292Z,13.37
2019-01-26T11:07:52.887Z,14.30
2019-01-26T11:10:22.993Z,12.13
2019-01-26T11:12:53.080Z,13.43
2019-01-26T11:15:23.216Z,14.20
2019-01-26T11:17:56.418Z,13.77
2019-01-26T11:20:26.255Z,13.57
2019-01-26T11:23:01.613Z,12.90
2019-01-26T11:25:31.410Z,14.40
2019-01-26T11:28:02.492Z,13.93
2019-01-26T11:30:33.698Z,14.37
2019-01-26T11:33:07.759Z,12.80
2019-01-26T11:35:36.780Z,13.43
2019-01-26T11:38:08.104Z,14.87
2019-01-26T11:40:37.184Z,13.17
2019-01-26T11:43:12.723Z,14.40
2019-01-26T11:45:54.360Z,14.57
2019-01-26T11:48:32.182Z,12.23
2019-01-26T11:51:19.658Z,12.57
2019-01-26T11:53:49.340Z,10.90
2019-01-26T11:56:30.058Z,9.97
2019-01-26T11:58:59.767Z,10.20
2019-01-26T12:01:48.394Z,8.53
2019-01-26T12:04:47.651Z,7.07
2019-01-26T12:07:24.483Z,7.60
2019-01-26T12:09:54.720Z,5.93
2019-01-26T12:12:27.163Z,5.43
2019-01-26T12:14:56.861Z,5.43
2019-01-26T12:17:31.376Z,4.17
2019-01-26T12:20:01.078Z,4.97
2019-01-26T12:22:33.863Z,3.87
2019-01-26T12:25:04.266Z,4.33
2019-01-26T12:27:36.516Z,3.30
2019-01-26T12:30:06.984Z,3.30
2019-01-26T12:32:39.522Z,3.60
2019-01-26T12:35:09.895Z,3.73
2019-01-26T12:37:41.957Z,3.33
2019-01-26T12:40:12.212Z,3.63
2019-01-26T12:42:45.776Z,3.63
2019-01-26T12:45:17.811Z,4.30
2019-01-26T12:47:48.226Z,4.13
2019-01-26T12:52:49.838Z,4.83
2019-01-26T12:55:20.043Z,5.23
2019-01-26T12:57:55.619Z,5.43
2019-01-26T13:00:25.329Z,4.97
2019-01-26T13:02:59.485Z,4.33
2019-01-26T13:05:30.315Z,5.07
2019-01-26T13:08:00.129Z,4.23
2019-01-26T13:10:34.675Z,4.23
2019-01-26T13:13:03.780Z,4.57
2019-01-26T13:15:34.259Z,3.63
2019-01-26T13:18:06.754Z,4.13
2019-01-26T13:20:36.438Z,4.20
2019-01-26T13:23:13.049Z,4.13
2019-01-26T13:25:43.223Z,3.97
2019-01-26T13:28:14.349Z,3.33
2019-01-26T13:30:44.270Z,3.77
2019-01-26T13:33:18.163Z,3.83
2019-01-26T13:35:48.048Z,3.73
2019-01-26T13:38:20.330Z,4.07
2019-01-26T13:40:50.119Z,3.43
2019-01-26T13:43:22.894Z,3.53
2019-01-26T13:45:53.219Z,3.27
2019-01-26T13:48:28.460Z,3.40
2019-01-26T13:50:57.674Z,3.47
2019-01-26T13:53:28.013Z,3.60
2019-01-26T13:55:57.747Z,3.40
2019-01-26T13:58:30.441Z,3.20
2019-01-26T14:00:59.789Z,2.80
2019-01-26T14:03:32.614Z,2.77
2019-01-26T14:06:02.304Z,3.43
2019-01-26T14:08:36.414Z,2.80
2019-01-26T14:11:06.337Z,2.33
2019-01-26T14:13:38.417Z,2.13
2019-01-26T14:16:08.539Z,2.07
2019-01-26T14:18:43.534Z,1.83
2019-01-26T14:21:13.500Z,2.10
2019-01-26T14:23:42.969Z,2.00
2019-01-26T14:26:12.710Z,2.07
2019-01-26T14:28:45.964Z,1.90
2019-01-26T14:31:17.931Z,1.90
2019-01-26T14:33:50.937Z,2.33
2019-01-26T14:36:21.181Z,2.70
2019-01-26T14:38:55.330Z,2.20
2019-01-26T14:41:24.344Z,1.93
2019-01-26T14:43:56.640Z,1.90
2019-01-26T14:46:26.408Z,2.13
2019-01-26T14:48:59.652Z,1.97
2019-01-26T14:51:29.467Z,1.93
2019-01-26T14:54:06.235Z,1.93
2019-01-26T14:56:36.087Z,1.97
2019-01-26T14:59:05.341Z,1.97
2019-01-26T15:01:35.904Z,2.10
2019-01-26T15:04:16.164Z,2.20
2019-01-26T15:06:48.721Z,2.30
2019-01-26T15:09:18.617Z,1.90
2019-01-26T15:11:48.379Z,1.80
2019-01-26T15:14:17.891Z,2.33
2019-01-26T15:16:47.912Z,2.00
2019-01-26T15:19:18.227Z,2.23
2019-01-26T15:21:48.634Z,2.10
2019-01-26T15:24:21.658Z,2.40
2019-01-26T15:26:52.465Z,1.80
2019-01-26T15:29:30.362Z,2.07
2019-01-26T15:32:00.480Z,2.20
2019-01-26T15:34:32.682Z,2.30
2019-01-26T15:37:03.176Z,1.63
2019-01-26T15:39:42.101Z,2.30
2019-01-26T15:42:16.384Z,1.60
2019-01-26T15:44:46.902Z,1.67
2019-01-26T15:47:38.959Z,1.43
2019-01-26T15:50:13.205Z,1.97
2019-01-26T15:52:41.883Z,1.83
2019-01-26T15:55:36.516Z,1.83
2019-01-26T15:58:07.204Z,1.60
2019-01-26T16:00:45.455Z,2.23
2019-01-26T16:03:15.867Z,2.23
2019-01-26T16:05:48.721Z,1.50
2019-01-26T16:08:18.562Z,1.50
2019-01-26T16:10:49.033Z,1.40
2019-01-26T16:13:18.890Z,1.47
2019-01-26T16:15:51.861Z,1.57
2019-01-26T16:18:22.183Z,1.70
2019-01-26T16:23:22.428Z,1.87
2019-01-26T16:25:57.936Z,1.60
2019-01-26T16:28:27.621Z,1.63
2019-01-26T16:30:59.738Z,1.97
2019-01-26T16:33:29.763Z,1.70
2019-01-26T16:36:01.757Z,1.47
2019-01-26T16:38:30.926Z,1.53
2019-01-26T16:41:06.639Z,1.37
2019-01-26T16:43:36.332Z,1.30
2019-01-26T16:46:09.764Z,1.50
2019-01-26T16:48:40.648Z,1.57
2019-01-26T16:51:13.484Z,1.60
2019-01-26T16:53:43.195Z,1.50
2019-01-26T16:56:16.243Z,1.63
2019-01-26T16:58:45.271Z,1.30
2019-01-26T17:01:17.767Z,1.50
2019-01-26T17:03:47.973Z,1.60
2019-01-26T17:06:20.811Z,1.60
2019-01-26T17:08:50.599Z,1.47
2019-01-26T17:11:36.356Z,1.53
2019-01-26T17:14:06.389Z,1.60
2019-01-26T17:16:35.839Z,1.50
2019-01-26T17:19:04.943Z,1.63
2019-01-26T17:21:34.694Z,1.50
2019-01-26T17:24:07.499Z,1.30
2019-01-26T17:26:37.208Z,1.80
2019-01-26T17:29:18.959Z,1.80
2019-01-26T17:31:52.725Z,1.90
2019-01-26T17:34:23.173Z,1.67
2019-01-26T17:36:53.660Z,2.27
2019-01-26T17:39:23.961Z,1.60
2019-01-26T17:41:56.011Z,2.20
2019-01-26T17:44:25.691Z,1.70
2019-01-26T17:46:55.825Z,2.00
2019-01-26T17:49:25.624Z,1.80
2019-01-26T17:51:55.533Z,2.10
2019-01-26T17:54:24.532Z,1.70
2019-01-26T17:56:55.821Z,1.77
2019-01-26T17:59:24.850Z,1.87
2019-01-26T18:01:56.671Z,1.97
2019-01-26T18:04:27.834Z,2.20
2019-01-26T18:06:57.679Z,2.00
2019-01-26T18:09:26.966Z,2.23
2019-01-26T18:11:59.562Z,2.63
2019-01-26T18:14:29.324Z,1.70
2019-01-26T18:17:02.175Z,2.20
2019-01-26T18:19:32.279Z,2.10
2019-01-26T18:22:10.117Z,2.03
2019-01-26T18:24:40.231Z,2.00
2019-01-26T18:27:12.735Z,2.03
2019-01-26T18:29:42.497Z,2.30
2019-01-26T18:32:15.143Z,2.10
2019-01-26T18:34:48.087Z,3.07
2019-01-26T18:37:17.111Z,2.23
2019-01-26T18:39:46.397Z,1.80
2019-01-26T18:42:21.847Z,6.30
2019-01-26T18:44:55.654Z,3.50
2019-01-26T18:47:25.383Z,1.80
2019-01-26T18:49:55.174Z,2.03
2019-01-26T18:52:24.922Z,1.80
2019-01-26T18:54:56.737Z,8.43
2019-01-26T18:57:26.728Z,1.50
2019-01-26T18:59:56.428Z,3.73
2019-01-26T19:02:30.235Z,1.87
2019-01-26T19:05:04.006Z,10.33
2019-01-26T19:07:33.080Z,7.90
2019-01-26T19:10:02.805Z,6.10
2019-01-26T19:12:33.434Z,4.23
2019-01-26T19:15:03.744Z,3.50
2019-01-26T19:17:39.290Z,3.80
2019-01-26T19:20:09.532Z,3.60
2019-01-26T19:22:43.223Z,3.33
2019-01-26T19:25:14.611Z,2.67
2019-01-26T19:27:44.775Z,1.90
2019-01-26T19:30:16.691Z,1.67
2019-01-26T19:32:45.755Z,2.00
2019-01-26T19:35:15.682Z,1.77
2019-01-26T19:37:51.962Z,1.90
2019-01-26T19:40:23.276Z,1.60
2019-01-26T19:42:55.392Z,1.70
2019-01-26T19:45:26.245Z,1.70
2019-01-26T19:48:01.092Z,1.70
2019-01-26T19:50:41.663Z,1.80
2019-01-26T19:53:11.415Z,1.40
2019-01-26T19:55:40.699Z,1.50
2019-01-26T19:58:10.679Z,1.50
2019-01-26T20:00:39.867Z,1.23
2019-01-26T20:03:10.078Z,1.60
2019-01-26T20:05:40.218Z,1.50
2019-01-26T20:08:10.823Z,2.10
2019-01-26T20:10:40.171Z,1.77
2019-01-26T20:13:14.805Z,1.40
2019-01-26T20:16:03.472Z,1.30
2019-01-26T20:18:34.972Z,1.87
2019-01-26T20:21:05.086Z,1.63
2019-01-26T20:23:34.818Z,1.60
2019-01-26T20:26:05.371Z,1.60
2019-01-26T20:28:34.388Z,1.63
2019-01-26T20:31:04.804Z,1.70
2019-01-26T20:33:33.826Z,0.93
2019-01-26T20:36:03.623Z,1.33
2019-01-26T20:38:33.612Z,1.20
2019-01-26T20:41:03.351Z,1.43
2019-01-26T20:43:33.987Z,1.70
2019-01-26T20:46:03.890Z,1.23
2019-01-26T20:48:33.821Z,1.40
2019-01-26T20:51:03.855Z,1.73
2019-01-26T20:53:36.602Z,1.20
2019-01-26T20:56:06.531Z,1.07
2019-01-26T20:58:40.377Z,1.37
2019-01-26T21:01:10.284Z,1.20
2019-01-26T21:03:46.742Z,1.67
2019-01-26T21:06:19.723Z,1.70
2019-01-26T21:08:51.276Z,1.80
2019-01-26T21:11:20.314Z,1.83
2019-01-26T21:13:50.471Z,2.20
2019-01-26T21:16:20.178Z,1.90
2019-01-26T21:18:49.891Z,3.43
2019-01-26T21:21:19.883Z,3.17
2019-01-26T21:23:52.559Z,1.90
2019-01-26T21:26:22.240Z,2.00
2019-01-26T21:28:57.539Z,2.00
2019-01-26T21:31:27.237Z,2.13
2019-01-26T21:33:58.207Z,1.50
2019-01-26T21:36:27.235Z,1.70
2019-01-26T21:39:07.795Z,1.40
2019-01-26T21:41:37.799Z,1.50
2019-01-26T21:44:06.910Z,1.50
2019-01-26T21:46:36.607Z,1.80
2019-01-26T21:49:07.857Z,1.97
2019-01-26T21:51:39.103Z,1.80
2019-01-26T21:54:12.907Z,1.60
2019-01-26T21:56:42.886Z,1.90
2019-01-26T21:59:14.906Z,1.40
2019-01-26T22:01:46.147Z,1.60
2019-01-26T22:04:18.937Z,1.93
2019-01-26T22:06:48.732Z,1.23
2019-01-26T22:09:21.238Z,1.70
2019-01-26T22:11:51.324Z,1.00
2019-01-26T22:14:21.375Z,1.40
2019-01-26T22:16:52.899Z,1.40
2019-01-26T22:19:25.018Z,1.10
2019-01-26T22:21:55.098Z,1.40
2019-01-26T22:24:25.934Z,1.10
2019-01-26T22:26:55.930Z,1.20
2019-01-26T22:29:31.558Z,1.00
2019-01-26T22:32:01.247Z,1.13
2019-01-26T22:34:33.413Z,1.00
2019-01-26T22:37:03.142Z,1.20
2019-01-26T22:39:36.068Z,1.10
2019-01-26T22:42:06.070Z,1.30
2019-01-26T22:44:41.651Z,1.37
2019-01-26T22:47:11.352Z,1.20
2019-01-26T22:49:40.801Z,1.37
2019-01-26T22:52:10.571Z,1.10
2019-01-26T22:54:44.739Z,1.03
2019-01-26T22:57:14.282Z,1.10
2019-01-26T22:59:47.891Z,1.20
2019-01-26T23:02:17.611Z,1.10
2019-01-26T23:04:57.616Z,1.00
2019-01-26T23:07:43.542Z,1.17
2019-01-26T23:10:29.866Z,1.30
2019-01-26T23:13:44.395Z,1.30
2019-01-26T23:16:54.942Z,1.50
2019-01-26T23:19:47.063Z,1.30
2019-01-26T23:22:59.497Z,1.50
2019-01-26T23:26:08.970Z,1.20
2019-01-26T23:29:28.748Z,1.30
2019-01-26T23:31:58.484Z,1.40
2019-01-26T23:34:28.527Z,1.30
2019-01-26T23:36:58.255Z,1.43
2019-01-26T23:39:28.039Z,1.10
2019-01-26T23:41:58.067Z,1.60
2019-01-26T23:44:27.074Z,1.87
2019-01-26T23:46:56.892Z,1.73
2019-01-26T23:49:27.000Z,1.47
2019-01-26T23:51:56.699Z,1.40
2019-01-26T23:54:26.471Z,1.67
2019-01-26T23:56:59.608Z,1.20
2019-01-26T23:59:29.331Z,1.80
